createdAt,value
2024-01-16T00:03:00.077Z,-0.50
2024-01-16T00:08:22.005Z,-0.44
2024-01-16T00:13:43.868Z,-0.54
2024-01-16T00:19:05.938Z,-0.54
2024-01-16T00:24:27.845Z,-0.60
2024-01-16T00:29:49.854Z,-0.50
2024-01-16T00:35:11.828Z,-0.64
2024-01-16T00:40:33.727Z,-0.78
2024-01-16T00:45:55.616Z,-0.71
2024-01-16T00:51:17.530Z,-0.80
2024-01-16T00:56:39.531Z,-0.81
2024-01-16T01:02:01.532Z,-0.86
2024-01-16T01:07:23.609Z,-0.85
2024-01-16T01:12:45.434Z,-0.83
2024-01-16T01:18:08.062Z,-0.80
2024-01-16T01:23:30.163Z,-0.74
2024-01-16T01:28:52.032Z,-0.77
2024-01-16T01:34:13.929Z,-0.73
2024-01-16T01:39:35.790Z,-0.65
2024-01-16T01:44:59.604Z,-0.68
2024-01-16T01:50:21.613Z,-0.64
2024-01-16T01:55:43.491Z,-0.75
2024-01-16T02:01:07.373Z,-0.80
2024-01-16T02:06:29.342Z,-0.86
2024-01-16T02:11:51.248Z,-0.92
2024-01-16T02:17:13.097Z,-1.00
2024-01-16T02:22:37.689Z,-1.09
2024-01-16T02:28:01.524Z,-1.14
2024-01-16T02:33:23.507Z,-1.15
2024-01-16T02:38:46.716Z,-1.17
2024-01-16T02:44:08.821Z,-1.14
2024-01-16T02:49:33.213Z,-1.34
2024-01-16T02:54:55.422Z,-1.31
2024-01-16T03:00:18.534Z,-1.21
2024-01-16T03:05:40.686Z,-1.39
2024-01-16T03:11:02.601Z,-1.35
2024-01-16T03:16:24.385Z,-1.32
2024-01-16T03:21:46.217Z,-1.46
2024-01-16T03:27:08.051Z,-1.36
2024-01-16T03:32:30.646Z,-1.49
2024-01-16T03:37:52.521Z,-1.55
2024-01-16T03:43:14.902Z,-1.67
2024-01-16T03:48:36.840Z,-1.73
2024-01-16T03:53:58.979Z,-1.67
2024-01-16T03:59:20.777Z,-1.81
2024-01-16T04:04:42.626Z,-1.79
2024-01-16T04:10:06.431Z,-1.78
2024-01-16T04:15:28.353Z,-1.94
2024-01-16T04:20:51.075Z,-1.88
2024-01-16T04:26:13.156Z,-1.88
2024-01-16T04:31:42.030Z,-1.88
2024-01-16T04:37:04.536Z,-2.07
2024-01-16T04:42:26.508Z,-2.06
2024-01-16T04:47:48.350Z,-2.07
2024-01-16T04:53:10.197Z,-2.01
2024-01-16T04:58:32.105Z,-2.07
2024-01-16T05:03:53.932Z,-2.05
2024-01-16T05:09:15.748Z,-2.03
2024-01-16T05:14:37.593Z,-1.88
2024-01-16T05:20:00.189Z,-2.01
2024-01-16T05:25:22.852Z,-2.05
2024-01-16T05:30:44.756Z,-1.99
2024-01-16T05:36:06.967Z,-2.06
2024-01-16T05:41:29.205Z,-2.11
2024-01-16T05:46:51.451Z,-2.18
2024-01-16T05:52:13.296Z,-2.27
2024-01-16T05:57:35.156Z,-2.25
2024-01-16T06:02:56.954Z,-2.34
2024-01-16T06:08:20.171Z,-2.40
2024-01-16T06:13:42.090Z,-2.35
2024-01-16T06:19:04.223Z,-2.29
2024-01-16T06:24:26.172Z,-2.28
2024-01-16T06:29:49.667Z,-2.27
2024-01-16T06:35:13.598Z,-2.33
2024-01-16T06:40:35.446Z,-2.24
2024-01-16T06:45:57.177Z,-2.20
2024-01-16T06:51:19.547Z,-2.21
2024-01-16T06:56:41.561Z,-2.22
2024-01-16T07:02:04.386Z,-2.21
2024-01-16T07:07:26.322Z,-2.19
2024-01-16T07:12:48.322Z,-2.19
2024-01-16T07:18:10.333Z,-2.25
2024-01-16T07:23:32.387Z,-2.14
2024-01-16T07:28:54.275Z,-2.19
2024-01-16T07:34:21.122Z,-2.12
2024-01-16T07:39:43.019Z,-2.12
2024-01-16T07:45:05.623Z,-2.10
2024-01-16T07:50:27.696Z,-2.02
2024-01-16T07:55:50.162Z,-1.74
2024-01-16T08:01:11.975Z,-1.73
2024-01-16T08:06:33.896Z,-1.68
2024-01-16T08:11:55.826Z,-1.46
2024-01-16T08:17:17.761Z,-1.46
2024-01-16T08:22:39.630Z,-1.34
2024-01-16T08:28:02.076Z,-1.14
2024-01-16T08:33:31.422Z,-1.01
2024-01-16T08:38:59.420Z,-0.89
2024-01-16T08:44:21.329Z,-0.80
2024-01-16T08:49:44.476Z,-0.82
2024-01-16T08:55:06.462Z,-0.81
2024-01-16T09:00:28.414Z,-0.74
2024-01-16T09:05:50.411Z,-0.61
2024-01-16T09:11:12.528Z,-0.61
2024-01-16T09:16:34.372Z,-0.46
2024-01-16T09:21:59.230Z,-0.54
2024-01-16T09:27:21.097Z,-0.42
2024-01-16T09:32:43.841Z,-0.25
2024-01-16T09:38:08.354Z,0.02
2024-01-16T09:43:32.207Z,0.12
2024-01-16T09:48:58.216Z,0.61
2024-01-16T09:54:20.177Z,1.13
2024-01-16T09:59:42.804Z,0.95
2024-01-16T10:05:04.943Z,1.11
2024-01-16T10:10:38.387Z,1.48
2024-01-16T10:16:08.602Z,1.34
2024-01-16T10:21:33.255Z,1.97
2024-01-16T10:27:03.547Z,3.08
2024-01-16T10:32:30.886Z,4.58
2024-01-16T10:37:54.912Z,4.73
2024-01-16T10:43:18.640Z,4.01
2024-01-16T10:48:43.306Z,4.59
2024-01-16T10:54:07.012Z,6.39
2024-01-16T11:00:18.207Z,7.38
2024-01-16T11:05:41.099Z,7.38
2024-01-16T11:11:04.696Z,7.75
2024-01-16T11:16:27.361Z,6.53
2024-01-16T11:21:50.434Z,8.06
2024-01-16T11:27:24.011Z,8.59
2024-01-16T11:32:46.150Z,9.06
2024-01-16T11:38:10.900Z,9.41
2024-01-16T11:43:32.808Z,8.60
2024-01-16T11:49:04.767Z,9.31
2024-01-16T11:54:27.635Z,9.26
2024-01-16T12:00:14.015Z,8.51
2024-01-16T12:05:36.320Z,7.98
2024-01-16T12:10:59.006Z,9.83
2024-01-16T12:16:20.862Z,8.56
2024-01-16T12:21:45.128Z,8.33
2024-01-16T12:27:07.225Z,7.99
2024-01-16T12:32:29.153Z,8.87
2024-01-16T12:38:06.620Z,6.49
2024-01-16T12:43:28.681Z,7.40
2024-01-16T12:48:56.689Z,7.17
2024-01-16T12:54:25.497Z,8.65
2024-01-16T12:59:48.671Z,8.10
2024-01-16T13:05:10.663Z,8.24
2024-01-16T13:10:32.965Z,8.14
2024-01-16T13:15:54.932Z,8.91
2024-01-16T13:21:16.770Z,9.49
2024-01-16T13:26:38.694Z,10.54
2024-01-16T13:32:01.411Z,10.19
2024-01-16T13:37:24.264Z,9.30
2024-01-16T13:42:49.069Z,10.60
2024-01-16T13:48:11.155Z,8.88
2024-01-16T13:53:33.166Z,8.94
2024-01-16T13:58:55.014Z,7.73
2024-01-16T14:04:16.872Z,6.09
2024-01-16T14:09:39.165Z,5.16
2024-01-16T14:15:04.442Z,4.49
2024-01-16T14:20:28.555Z,3.95
2024-01-16T14:25:50.865Z,3.53
2024-01-16T14:31:12.698Z,3.32
2024-01-16T14:36:34.551Z,3.06
2024-01-16T14:41:56.392Z,3.13
2024-01-16T14:47:19.136Z,3.12
2024-01-16T14:52:41.673Z,3.10
2024-01-16T14:58:03.789Z,2.78
2024-01-16T15:03:25.776Z,2.52
2024-01-16T15:08:49.454Z,2.26
2024-01-16T15:14:14.695Z,1.80
2024-01-16T15:19:37.701Z,1.76
2024-01-16T15:24:59.524Z,1.58
2024-01-16T15:30:22.846Z,1.53
2024-01-16T15:35:44.709Z,1.30
2024-01-16T15:41:07.147Z,1.07
2024-01-16T15:46:29.070Z,0.97
2024-01-16T15:51:50.932Z,0.77
2024-01-16T15:57:12.943Z,0.62
2024-01-16T16:02:35.082Z,0.44
2024-01-16T16:07:56.984Z,0.30
2024-01-16T16:13:19.905Z,0.17
2024-01-16T16:18:42.150Z,-0.08
2024-01-16T16:24:05.564Z,-0.40
2024-01-16T16:29:27.355Z,-0.53
2024-01-16T16:34:50.302Z,-0.70
2024-01-16T16:40:13.383Z,-0.83
2024-01-16T16:45:35.307Z,-1.04
2024-01-16T16:50:57.390Z,-1.09
2024-01-16T16:56:20.605Z,-1.13
2024-01-16T17:01:42.480Z,-1.13
2024-01-16T17:07:04.675Z,-1.24
2024-01-16T17:12:26.696Z,-1.46
2024-01-16T17:17:49.085Z,-1.56
2024-01-16T17:23:11.004Z,-1.55
2024-01-16T17:28:33.217Z,-1.54
2024-01-16T17:33:55.499Z,-1.40
2024-01-16T17:39:20.151Z,-1.41
2024-01-16T17:44:49.359Z,-1.36
2024-01-16T17:50:12.625Z,-1.39
2024-01-16T17:55:35.081Z,-1.54
2024-01-16T18:00:56.952Z,-1.73
2024-01-16T18:06:21.582Z,-1.96
2024-01-16T18:11:57.029Z,-1.92
2024-01-16T18:17:19.640Z,-1.99
2024-01-16T18:22:41.895Z,-2.03
2024-01-16T18:28:05.280Z,-2.05
2024-01-16T18:33:27.283Z,-2.11
2024-01-16T18:38:50.524Z,-2.11
2024-01-16T18:44:13.306Z,-2.36
2024-01-16T18:49:35.256Z,-2.49
2024-01-16T18:54:57.614Z,-2.51
2024-01-16T19:00:23.359Z,-2.72
2024-01-16T19:05:45.524Z,-2.78
2024-01-16T19:11:07.395Z,-2.84
2024-01-16T19:16:29.634Z,-2.91
2024-01-16T19:21:52.685Z,-2.93
2024-01-16T19:27:14.580Z,-2.98
2024-01-16T19:32:36.557Z,-2.95
2024-01-16T19:37:58.445Z,-2.86
2024-01-16T19:43:20.681Z,-3.09
2024-01-16T19:48:42.650Z,-3.06
2024-01-16T19:54:07.659Z,-3.04
2024-01-16T19:59:31.985Z,-2.99
2024-01-16T20:04:55.527Z,-3.08
2024-01-16T20:10:18.545Z,-3.15
2024-01-16T20:15:40.649Z,-3.22
2024-01-16T20:21:02.584Z,-3.33
2024-01-16T20:26:26.843Z,-3.44
2024-01-16T20:31:48.806Z,-3.41
2024-01-16T20:37:14.330Z,-3.42
2024-01-16T20:42:38.002Z,-3.45
2024-01-16T20:47:59.908Z,-3.44
2024-01-16T20:53:22.490Z,-3.53
2024-01-16T20:58:44.369Z,-3.53
2024-01-16T21:04:07.314Z,-3.33
2024-01-16T21:09:29.390Z,-3.51
2024-01-16T21:14:51.372Z,-3.43
2024-01-16T21:20:13.725Z,-3.44
2024-01-16T21:25:35.697Z,-3.48
2024-01-16T21:31:02.359Z,-3.54
2024-01-16T21:36:24.648Z,-3.58
2024-01-16T21:41:47.499Z,-3.63
2024-01-16T21:47:10.085Z,-3.67
2024-01-16T21:52:31.934Z,-3.68
2024-01-16T21:57:53.820Z,-3.78
2024-01-16T22:03:15.639Z,-3.78
2024-01-16T22:08:37.418Z,-3.78
2024-01-16T22:13:59.557Z,-3.71
2024-01-16T22:19:21.939Z,-3.73
2024-01-16T22:24:43.770Z,-3.80
2024-01-16T22:30:09.325Z,-3.74
2024-01-16T22:35:31.884Z,-3.60
2024-01-16T22:40:53.716Z,-3.68
2024-01-16T22:46:16.266Z,-3.64
2024-01-16T22:51:38.087Z,-3.66
2024-01-16T22:56:59.974Z,-3.61
2024-01-16T23:02:22.004Z,-3.57
2024-01-16T23:07:47.049Z,-3.62
2024-01-16T23:13:08.883Z,-3.57
2024-01-16T23:18:31.120Z,-3.54
2024-01-16T23:23:53.110Z,-3.50
2024-01-16T23:29:15.053Z,-3.48
2024-01-16T23:34:38.382Z,-3.48
2024-01-16T23:40:00.671Z,-3.55
2024-01-16T23:45:27.873Z,-3.49
2024-01-16T23:50:55.413Z,-3.50
2024-01-16T23:56:17.201Z,-3.43
